Time;durP1;ratioP1;P1;durP2;ratioP2;P2;SDS_P1;SDS_P2;PMS_P1;PMS_P2;Temp;Humidity;BMP_temperature;BMP_pressure;BME280_temperature;BME280_humidity;BME280_pressure;Samples;Min_cycle;Max_cycle;Signal;HPM_P1;HPM_P2
2023/06/16 00:02:12;;;;;;;0.00;0.00;;;;;;;;;;7365503;19;20493;-67
2023/06/16 00:04:43;;;;;;;0.00;0.00;;;;;;;;;;7361237;19;20153;-67
2023/06/16 00:07:12;;;;;;;0.00;0.00;;;;;;;;;;7366086;19;20153;-69
2023/06/16 00:09:44;;;;;;;0.00;0.00;;;;;;;;;;7366340;19;20155;-69
2023/06/16 00:12:13;;;;;;;0.00;0.00;;;;;;;;;;7367862;19;20596;-67
2023/06/16 00:14:42;;;;;;;0.10;0.10;;;;;;;;;;7363268;19;20160;-67
2023/06/16 00:17:12;;;;;;;0.00;0.00;;;;;;;;;;7367183;19;20149;-68
2023/06/16 00:22:39;;;;;;;0.00;0.00;;;;;;;;;;7351755;19;20242;-69
2023/06/16 00:25:11;;;;;;;0.00;0.00;;;;;;;;;;7366745;19;20156;-67
2023/06/16 00:27:40;;;;;;;0.07;0.07;;;;;;;;;;7365288;19;20156;-68
2023/06/16 00:30:10;;;;;;;0.00;0.00;;;;;;;;;;7362980;19;20183;-68
2023/06/16 00:32:39;;;;;;;0.00;0.00;;;;;;;;;;7363992;19;20160;-69
2023/06/16 00:35:08;;;;;;;0.00;0.00;;;;;;;;;;7364125;19;20160;-68
2023/06/16 00:37:39;;;;;;;0.00;0.00;;;;;;;;;;7362211;19;20528;-68
2023/06/16 00:40:12;;;;;;;0.10;0.10;;;;;;;;;;7365014;19;20176;-68
2023/06/16 00:42:41;;;;;;;0.00;0.00;;;;;;;;;;7364517;19;20188;-68
2023/06/16 00:45:10;;;;;;;0.00;0.00;;;;;;;;;;7363215;19;20233;-69
2023/06/16 00:47:40;;;;;;;0.10;0.10;;;;;;;;;;7365602;19;20152;-69
2023/06/16 00:50:10;;;;;;;0.00;0.00;;;;;;;;;;7365209;19;20173;-69
2023/06/16 00:52:40;;;;;;;0.00;0.00;;;;;;;;;;7363737;19;20176;-67
2023/06/16 00:55:12;;;;;;;0.00;0.00;;;;;;;;;;7365845;19;20153;-68
2023/06/16 00:57:42;;;;;;;0.10;0.10;;;;;;;;;;7364078;19;20160;-67
2023/06/16 01:00:12;;;;;;;0.00;0.00;;;14.90;99.90;;;;;;7363753;19;20184;-69
2023/06/16 01:02:40;;;;;;;0.00;0.00;;;15.00;99.90;;;;;;7362374;19;20163;-67
2023/06/16 01:05:11;;;;;;;0.00;0.00;;;14.90;99.90;;;;;;7365155;19;20152;-68
2023/06/16 01:07:44;;;;;;;0.10;0.10;;;14.90;99.90;;;;;;7364013;19;20180;-69
2023/06/16 01:10:19;;;;;;;0.10;0.10;;;;;;;;;;7363843;19;20241;-69
2023/06/16 01:12:53;;;;;;;0.00;0.00;;;;;;;;;;7365174;19;20125;-69
2023/06/16 01:15:24;;;;;;;0.00;0.00;;;;;;;;;;7365347;19;20153;-68
2023/06/16 01:17:54;;;;;;;0.10;0.10;;;;;;;;;;7367882;19;20212;-69
2023/06/16 01:20:28;;;;;;;0.10;0.10;;;;;;;;;;7374169;19;20189;-69
2023/06/16 01:23:04;;;;;;;0.07;0.07;;;;;;;;;;7370188;19;20271;-69
2023/06/16 01:25:38;;;;;;;0.00;0.00;;;;;;;;;;7372970;19;20228;-69
2023/06/16 01:28:08;;;;;;;0.10;0.10;;;;;;;;;;7371477;19;20149;-68
2023/06/16 01:30:42;;;;;;;0.00;0.00;;;;;;;;;;7371343;19;20160;-69
2023/06/16 01:33:13;;;;;;;0.10;0.10;;;;;;;;;;7372529;19;20136;-69
2023/06/16 01:35:44;;;;;;;0.10;0.10;;;;;;;;;;7372135;19;20175;-69
2023/06/16 01:38:14;;;;;;;0.10;0.10;;;;;;;;;;7369736;19;20141;-67
2023/06/16 01:40:46;;;;;;;0.00;0.00;;;;;;;;;;7371692;19;20188;-69
2023/06/16 01:43:16;;;;;;;0.10;0.10;;;;;;;;;;7370156;19;20176;-68
2023/06/16 01:45:45;;;;;;;0.10;0.10;;;;;;;;;;7373609;19;20149;-68
2023/06/16 01:48:14;;;;;;;0.10;0.10;;;;;;;;;;7371726;19;20220;-67
2023/06/16 01:50:44;;;;;;;0.10;0.10;;;;;;;;;;7369018;19;20243;-68
2023/06/16 01:53:13;;;;;;;0.00;0.00;;;;;;;;;;7370690;19;20152;-69
2023/06/16 01:55:42;;;;;;;0.00;0.00;;;;;;;;;;7371588;19;20158;-68
2023/06/16 01:58:14;;;;;;;0.00;0.00;;;;;;;;;;7369800;19;20148;-68
2023/06/16 02:00:50;;;;;;;0.00;0.00;;;;;;;;;;7368638;19;20180;-69
2023/06/16 02:03:21;;;;;;;0.10;0.10;;;;;;;;;;7369972;19;20219;-69
2023/06/16 02:05:52;;;;;;;0.00;0.00;;;;;;;;;;7370861;19;20149;-68
2023/06/16 02:08:25;;;;;;;0.00;0.00;;;;;;;;;;7371463;19;20157;-67
2023/06/16 02:10:54;;;;;;;0.00;0.00;;;;;;;;;;7368102;19;20277;-67
2023/06/16 02:13:27;;;;;;;0.00;0.00;;;;;;;;;;7369148;19;20152;-69
2023/06/16 02:15:56;;;;;;;0.10;0.10;;;;;;;;;;7370537;19;20152;-68
2023/06/16 02:18:27;;;;;;;0.00;0.00;;;;;;;;;;7369725;19;20151;-68
2023/06/16 02:20:56;;;;;;;0.10;0.10;;;;;;;;;;7366508;19;20211;-68
2023/06/16 02:23:26;;;;;;;0.00;0.00;;;;;;;;;;7370633;19;20228;-68
2023/06/16 02:25:55;;;;;;;0.10;0.10;;;;;;;;;;7370388;19;20169;-67
2023/06/16 02:28:26;;;;;;;0.00;0.00;;;;;;;;;;7371442;19;20148;-68
2023/06/16 02:30:55;;;;;;;0.10;0.10;;;;;;;;;;7367992;19;20188;-67
2023/06/16 02:33:24;;;;;;;0.10;0.10;;;;;;;;;;7366604;19;20157;-67
2023/06/16 02:35:53;;;;;;;0.10;0.10;;;;;;;;;;7366363;19;20152;-66
2023/06/16 02:38:23;;;;;;;0.00;0.00;;;;;;;;;;7369774;19;20172;-67
2023/06/16 02:40:51;;;;;;;0.00;0.00;;;;;;;;;;7366834;19;20192;-67
2023/06/16 02:43:21;;;;;;;0.00;0.00;;;;;;;;;;7369628;19;20153;-67
2023/06/16 02:45:53;;;;;;;0.00;0.00;;;;;;;;;;7369183;19;20148;-67
2023/06/16 02:48:22;;;;;;;0.10;0.10;;;;;;;;;;7372071;19;20133;-67
2023/06/16 02:50:56;;;;;;;0.00;0.00;;;;;;;;;;7366081;19;20208;-68
2023/06/16 02:53:29;;;;;;;0.10;0.10;;;;;;;;;;7369150;19;20157;-66
2023/06/16 02:55:58;;;;;;;0.03;0.03;;;;;;;;;;7368345;19;20244;-67
2023/06/16 02:58:29;;;;;;;0.07;0.07;;;;;;;;;;7368690;19;20153;-66
2023/06/16 03:01:01;;;;;;;0.00;0.00;;;;;;;;;;7366854;19;20189;-68
2023/06/16 03:03:38;;;;;;;0.00;0.00;;;;;;;;;;7369311;19;20149;-68
2023/06/16 03:06:34;;;;;;;0.10;0.10;;;;;;;;;;7369003;19;20180;-66
2023/06/16 03:09:06;;;;;;;0.10;0.10;;;;;;;;;;7368524;19;20179;-67
2023/06/16 03:11:37;;;;;;;0.10;0.10;;;;;;;;;;7366392;19;20259;-67
2023/06/16 03:14:07;;;;;;;0.00;0.00;;;;;;;;;;7368115;19;20160;-67
2023/06/16 03:16:40;;;;;;;0.10;0.10;;;;;;;;;;7367012;19;20188;-67
2023/06/16 03:19:11;;;;;;;0.00;0.00;;;;;;;;;;7368108;19;20152;-67
2023/06/16 03:21:40;;;;;;;0.10;0.10;;;;;;;;;;7364862;19;20184;-67
2023/06/16 03:24:10;;;;;;;0.00;0.00;;;;;;;;;;7366712;19;20151;-67
2023/06/16 03:26:39;;;;;;;0.00;0.00;;;;;;;;;;7367987;19;20156;-66
2023/06/16 03:29:13;;;;;;;0.10;0.10;;;;;;;;;;7369158;19;20160;-66
2023/06/16 03:31:44;;;;;;;0.00;0.00;;;;;;;;;;7365573;19;20190;-66
2023/06/16 03:34:16;;;;;;;0.10;0.10;;;;;;;;;;7368107;19;20144;-67
2023/06/16 03:36:46;;;;;;;0.10;0.10;;;;;;;;;;7367464;19;20163;-66
2023/06/16 03:39:15;;;;;;;0.00;0.00;;;;;;;;;;7365740;19;20165;-67
2023/06/16 03:41:45;;;;;;;0.00;0.00;;;;;;;;;;7363280;19;20184;-65
2023/06/16 03:44:15;;;;;;;0.00;0.00;;;;;;;;;;7367723;19;20161;-67
2023/06/16 03:46:47;;;;;;;0.00;0.00;;;;;;;;;;7369410;19;20172;-67
2023/06/16 03:49:16;;;;;;;0.00;0.00;;;;;;;;;;7367168;19;20220;-67
2023/06/16 03:51:46;;;;;;;0.10;0.10;;;;;;;;;;7362704;19;20206;-67
2023/06/16 03:54:16;;;;;;;0.00;0.00;;;;;;;;;;7366465;19;20147;-66
2023/06/16 03:56:45;;;;;;;0.10;0.10;;;;;;;;;;7369150;19;20144;-67
2023/06/16 03:59:15;;;;;;;0.00;0.00;;;;;;;;;;7364738;19;20153;-67
2023/06/16 04:01:46;;;;;;;0.00;0.00;;;;;;;;;;7362695;19;20254;-67
2023/06/16 04:04:15;;;;;;;0.10;0.10;;;;;;;;;;7365679;19;20160;-66
2023/06/16 04:06:44;;;;;;;0.10;0.10;;;;;;;;;;7366283;19;20148;-67
2023/06/16 04:09:15;;;;;;;0.00;0.00;;;;;;;;;;7366578;19;20171;-68
2023/06/16 04:11:44;;;;;;;0.10;0.10;;;;;;;;;;7361769;19;20222;-66
2023/06/16 04:14:14;;;;;;;0.10;0.10;;;;;;;;;;7366205;19;20149;-68
2023/06/16 04:16:46;;;;;;;0.10;0.10;;;;;;;;;;7365672;19;20186;-67
2023/06/16 04:19:17;;;;;;;0.10;0.10;;;;;;;;;;7363614;19;20140;-69
2023/06/16 04:21:47;;;;;;;0.10;0.10;;;;;;;;;;7362291;19;20180;-69
2023/06/16 04:24:19;;;;;;;0.00;0.00;;;;;;;;;;7365510;19;20160;-68
2023/06/16 04:26:52;;;;;;;0.10;0.10;;;;;;;;;;7365016;19;20160;-70
2023/06/16 04:29:22;;;;;;;0.00;0.00;;;;;;;;;;7364622;19;20153;-70
2023/06/16 04:31:57;;;;;;;0.10;0.10;;;;;;;;;;7362256;19;20286;-69
2023/06/16 04:34:26;;;;;;;0.10;0.10;;;;;;;;;;7366913;19;20152;-68
2023/06/16 04:36:57;;;;;;;0.10;0.10;;;;;;;;;;7364786;19;20748;-69
2023/06/16 04:39:33;;;;;;;0.10;0.10;;;;;;;;;;7365021;19;20228;-69
2023/06/16 04:42:04;;;;;;;0.00;0.00;;;;;;;;;;7362223;19;20177;-69
2023/06/16 04:44:34;;;;;;;0.00;0.00;;;;;;;;;;7365495;19;20161;-69
2023/06/16 04:47:07;;;;;;;0.10;0.10;;;;;;;;;;7367939;19;20135;-72
2023/06/16 04:49:36;;;;;;;0.10;0.10;;;;;;;;;;7366529;19;20244;-69
2023/06/16 04:52:06;;;;;;;0.00;0.00;;;;;;;;;;7365446;19;20180;-68
2023/06/16 04:54:35;;;;;;;0.10;0.10;;;;;;;;;;7373931;19;20164;-71
2023/06/16 04:57:04;;;;;;;0.10;0.10;;;;;;;;;;7372625;19;20193;-70
2023/06/16 04:59:33;;;;;;;0.00;0.00;;;;;;;;;;7371121;19;20145;-68
2023/06/16 05:02:02;;;;;;;0.00;0.00;;;;;;;;;;7365544;19;20180;-70
2023/06/16 05:04:34;;;;;;;0.10;0.10;;;;;;;;;;7372884;19;20191;-68
2023/06/16 05:07:03;;;;;;;0.10;0.10;;;;;;;;;;7372761;19;20156;-69
2023/06/16 05:09:32;;;;;;;0.10;0.10;;;;;;;;;;7374029;19;20157;-69
2023/06/16 05:12:01;;;;;;;0.10;0.10;;;;;;;;;;7367090;19;20180;-69
2023/06/16 05:14:31;;;;;;;0.00;0.00;;;;;;;;;;7372360;19;20160;-69
2023/06/16 05:17:00;;;;;;;0.00;0.00;;;;;;;;;;7372165;19;20475;-70
2023/06/16 05:19:29;;;;;;;0.10;0.10;;;;;;;;;;7370186;19;20152;-69
2023/06/16 05:22:03;;;;;;;0.10;0.10;;;;;;;;;;7367922;19;20176;-70
2023/06/16 05:24:34;;;;;;;0.00;0.00;;;;;;;;;;7373877;19;20155;-69
2023/06/16 05:27:05;;;;;;;0.10;0.10;;;;;;;;;;7371607;19;20157;-70
2023/06/16 05:29:34;;;;;;;0.00;0.00;;;;;;;;;;7371675;19;20149;-70
2023/06/16 05:32:05;;;;;;;0.00;0.00;;;;;;;;;;7368205;19;20187;-70
2023/06/16 05:34:35;;;;;;;0.10;0.10;;;;;;;;;;7373348;19;20198;-70
2023/06/16 05:37:07;;;;;;;0.00;0.00;;;;;;;;;;7367738;19;20220;-66
2023/06/16 05:39:37;;;;;;;0.10;0.10;;;;;;;;;;7368432;19;20166;-68
2023/06/16 05:42:09;;;;;;;0.00;0.00;;;;;;;;;;7367672;19;20176;-67
2023/06/16 05:44:38;;;;;;;0.10;0.10;;;;;;;;;;7371781;19;20165;-65
2023/06/16 05:47:09;;;;;;;0.00;0.00;;;;;;;;;;7371422;19;20152;-67
2023/06/16 05:49:38;;;;;;;0.00;0.00;;;;;;;;;;7372291;19;20157;-67
2023/06/16 05:52:11;;;;;;;0.10;0.10;;;;;;;;;;7367693;19;20176;-70
2023/06/16 05:54:42;;;;;;;0.00;0.00;;;;;;;;;;7371478;19;20148;-68
2023/06/16 05:57:18;;;;;;;0.10;0.10;;;;;;;;;;7371568;19;20225;-66
2023/06/16 05:59:48;;;;;;;0.03;0.03;;;;;;;;;;7370722;19;20133;-69
2023/06/16 06:02:18;;;;;;;0.10;0.10;;;;;;;;;;7370097;19;20156;-69
2023/06/16 06:04:47;;;;;;;0.00;0.00;;;;;;;;;;7369585;19;20198;-69
2023/06/16 06:07:19;;;;;;;0.10;0.10;;;;;;;;;;7373197;19;20151;-69
2023/06/16 06:09:48;;;;;;;0.10;0.10;;;;;;;;;;7370425;19;20180;-68
2023/06/16 06:12:17;;;;;;;0.00;0.00;;;;;;;;;;7371268;19;20152;-69
2023/06/16 06:14:46;;;;;;;0.00;0.00;;;;;;;;;;7370677;19;20140;-67
2023/06/16 06:17:15;;;;;;;0.00;0.00;;;;;;;;;;7372625;19;20145;-68
2023/06/16 06:19:44;;;;;;;0.00;0.00;;;;;;;;;;7367695;19;20159;-67
2023/06/16 06:22:13;;;;;;;0.07;0.07;;;;;;;;;;7369094;19;20155;-69
2023/06/16 06:24:46;;;;;;;0.10;0.10;;;;;;;;;;7370660;19;20640;-68
2023/06/16 06:27:17;;;;;;;0.10;0.10;;;;;;;;;;7366910;19;20167;-70
2023/06/16 06:29:48;;;;;;;0.10;0.10;;;;;;;;;;7362528;19;20219;-69
2023/06/16 06:32:17;;;;;;;0.00;0.00;;;;;;;;;;7370073;19;20693;-71
2023/06/16 06:34:46;;;;;;;0.00;0.00;;;;;;;;;;7368571;19;20152;-73
2023/06/16 06:37:18;;;;;;;0.07;0.07;;;;;;;;;;7369949;19;20149;-71
2023/06/16 06:39:50;;;;;;;0.10;0.10;;;;;;;;;;7367083;19;20178;-71
2023/06/16 06:42:19;;;;;;;0.07;0.07;;;;;;;;;;7370205;19;20184;-70
2023/06/16 06:44:58;;;;;;;0.10;0.10;;;;;;;;;;7366962;19;20228;-71
2023/06/16 06:47:27;;;;;;;0.10;0.10;;;;;;;;;;7370347;19;20149;-71
2023/06/16 06:50:02;;;;;;;0.00;0.00;;;;;;;;;;7368148;19;20184;-71
2023/06/16 06:52:32;;;;;;;0.00;0.00;;;;;;;;;;7370416;19;20156;-71
2023/06/16 06:55:03;;;;;;;0.00;0.00;;;;;;;;;;7369319;19;20148;-71
2023/06/16 06:57:32;;;;;;;0.00;0.00;;;;;;;;;;7369283;19;20151;-71
2023/06/16 07:00:02;;;;;;;0.00;0.00;;;;;;;;;;7365302;19;20187;-70
2023/06/16 07:02:30;;;;;;;0.07;0.07;;;;;;;;;;7368981;19;20648;-70
2023/06/16 07:05:00;;;;;;;0.10;0.10;;;;;;;;;;7370459;19;20192;-72
2023/06/16 07:07:29;;;;;;;0.10;0.10;;;;;;;;;;7372644;19;20136;-70
2023/06/16 07:09:57;;;;;;;0.00;0.00;;;;;;;;;;7368262;19;20157;-71
2023/06/16 07:12:29;;;;;;;0.00;0.00;;;;;;;;;;7369160;19;20157;-70
2023/06/16 07:14:58;;;;;;;0.07;0.07;;;;;;;;;;7369238;19;20161;-69
2023/06/16 07:17:27;;;;;;;0.10;0.10;;;;;;;;;;7371374;19;20140;-72
2023/06/16 07:19:56;;;;;;;0.00;0.00;;;;;;;;;;7368477;19;20171;-70
2023/06/16 07:22:25;;;;;;;0.00;0.00;;;;;;;;;;7369588;19;20156;-70
2023/06/16 07:24:54;;;;;;;0.00;0.00;;;;;;;;;;7368267;19;20156;-71
2023/06/16 07:27:23;;;;;;;0.10;0.10;;;;;;;;;;7369500;19;20191;-70
2023/06/16 07:29:55;;;;;;;0.00;0.00;;;;;;;;;;7368306;19;20149;-70
2023/06/16 07:32:24;;;;;;;0.00;0.00;;;;;;;;;;7363499;19;20148;-69
2023/06/16 07:34:53;;;;;;;0.00;0.00;;;;;;;;;;7362185;19;20688;-70
2023/06/16 07:37:22;;;;;;;0.00;0.00;;;;;;;;;;7364249;19;20160;-70
2023/06/16 07:39:51;;;;;;;0.10;0.10;;;;;;;;;;7360569;19;20165;-70
2023/06/16 07:42:20;;;;;;;0.00;0.00;;;;;;;;;;7366941;19;20165;-70
2023/06/16 07:44:50;;;;;;;0.07;0.07;;;;;;;;;;7362693;19;20285;-70
2023/06/16 07:47:21;;;;;;;0.00;0.00;;;;;;;;;;7370574;19;20148;-71
2023/06/16 07:49:50;;;;;;;0.00;0.00;;;;;;;;;;7369823;19;20159;-72
2023/06/16 07:52:20;;;;;;;0.00;0.00;;;;;;;;;;7371893;19;20317;-71
2023/06/16 07:54:49;;;;;;;0.10;0.10;;;;;;;;;;7372944;19;20163;-72
2023/06/16 07:57:18;;;;;;;0.10;0.10;;;;;;;;;;7372558;19;20133;-72
2023/06/16 07:59:47;;;;;;;0.10;0.10;;;;;;;;;;7371875;19;20137;-74
2023/06/16 08:02:16;;;;;;;0.07;0.07;;;;;;;;;;7369816;19;20141;-73
2023/06/16 08:04:47;;;;;;;0.00;0.00;;;;;;;;;;7370232;19;20152;-74
2023/06/16 08:07:16;;;;;;;0.00;0.00;;;;;;;;;;7371472;19;20594;-72
2023/06/16 08:09:45;;;;;;;0.00;0.00;;;;;;;;;;7371630;19;20200;-72
2023/06/16 08:12:14;;;;;;;0.10;0.10;;;;;;;;;;7371060;19;20846;-71
2023/06/16 08:14:43;;;;;;;0.00;0.00;;;;;;;;;;7372367;19;20158;-72
2023/06/16 08:17:12;;;;;;;0.00;0.00;;;;;;;;;;7371760;19;20158;-72
2023/06/16 08:19:41;;;;;;;0.10;0.10;;;;;;;;;;7371784;19;20629;-70
2023/06/16 08:22:12;;;;;;;0.10;0.10;;;;;;;;;;7369591;19;20616;-71
2023/06/16 08:24:41;;;;;;;0.10;0.10;;;;;;;;;;7372650;19;20538;-72
2023/06/16 08:27:11;;;;;;;0.00;0.00;;;;;;;;;;7369589;19;20147;-73
2023/06/16 08:29:40;;;;;;;0.10;0.10;;;;;;;;;;7373112;19;20144;-72
2023/06/16 08:32:10;;;;;;;0.00;0.00;;;;;;;;;;7368760;19;20161;-71
2023/06/16 08:34:39;;;;;;;0.00;0.00;;;;;;;;;;7371275;19;20141;-71
2023/06/16 08:37:09;;;;;;;0.00;0.00;;;;;;;;;;7372112;19;20129;-72
2023/06/16 08:39:41;;;;;;;0.07;0.07;;;;;;;;;;7370532;19;20152;-71
2023/06/16 08:42:11;;;;;;;0.10;0.10;;;;;;;;;;7369137;19;20161;-71
2023/06/16 08:44:41;;;;;;;0.00;0.00;;;;;;;;;;7367207;19;20160;-71
2023/06/16 08:47:10;;;;;;;0.00;0.00;;;;;;;;;;7368024;19;20167;-71
2023/06/16 08:49:41;;;;;;;0.10;0.10;;;;;;;;;;7367214;19;20160;-71
2023/06/16 08:52:11;;;;;;;0.00;0.00;;;;;;;;;;7369346;19;20409;-71
2023/06/16 08:54:48;;;;;;;0.07;0.07;;;;;;;;;;7371545;19;20363;-71
2023/06/16 08:57:17;;;;;;;0.00;0.00;;;;;;;;;;7370183;19;20256;-70
2023/06/16 08:59:50;;;;;;;0.10;0.10;;;;;;;;;;7370779;19;20224;-70
2023/06/16 09:02:19;;;;;;;0.00;0.00;;;;;;;;;;7368551;19;20153;-71
2023/06/16 09:04:48;;;;;;;0.00;0.00;;;;;;;;;;7371024;19;20143;-70
2023/06/16 09:07:19;;;;;;;0.00;0.00;;;;;;;;;;7370451;19;20158;-72
2023/06/16 09:09:51;;;;;;;0.10;0.10;;;;;;;;;;7369557;19;20157;-71
2023/06/16 09:12:20;;;;;;;0.10;0.10;;;;;;;;;;7367598;19;20160;-71
2023/06/16 09:14:49;;;;;;;0.00;0.00;;;;;;;;;;7367645;19;20156;-70
2023/06/16 09:17:19;;;;;;;0.00;0.00;;;;;;;;;;7369028;19;20149;-71
2023/06/16 09:19:50;;;;;;;0.00;0.00;;;;;;;;;;7367487;19;20298;-70
2023/06/16 09:22:20;;;;;;;0.10;0.10;;;;;;;;;;7367642;19;20129;-68
2023/06/16 09:24:56;;;;;;;0.00;0.00;;;;;;;;;;7370283;19;20144;-69
2023/06/16 09:27:25;;;;;;;0.00;0.00;;;;;;;;;;7368390;19;20184;-71
2023/06/16 09:29:54;;;;;;;0.10;0.10;;;;;;;;;;7367696;19;20157;-70
2023/06/16 09:32:23;;;;;;;0.00;0.00;;;;;;;;;;7370149;19;20498;-71
2023/06/16 09:34:52;;;;;;;0.00;0.00;;;;;;;;;;7371046;19;20146;-70
2023/06/16 09:37:22;;;;;;;0.00;0.00;;;;;;;;;;7368780;19;20157;-71
2023/06/16 09:39:51;;;;;;;0.00;0.00;;;;;;;;;;7375913;19;20159;-72
2023/06/16 09:42:23;;;;;;;0.00;0.00;;;;;;;;;;7374680;19;20151;-70
2023/06/16 09:44:52;;;;;;;0.00;0.00;;;;;;;;;;7375088;19;20156;-72
2023/06/16 09:47:24;;;;;;;0.00;0.00;;;;;;;;;;7374557;19;20637;-72
2023/06/16 09:49:55;;;;;;;0.00;0.00;;;;;;;;;;7376370;19;20163;-72
2023/06/16 09:52:28;;;;;;;0.00;0.00;;;;;;;;;;7374724;19;20173;-70
2023/06/16 09:54:58;;;;;;;0.00;0.00;;;;;;;;;;7377191;19;20141;-70
2023/06/16 09:57:31;;;;;;;0.07;0.07;;;;;;;;;;7377829;19;20204;-70
2023/06/16 10:00:00;;;;;;;0.00;0.00;;;;;;;;;;7375623;19;20137;-71
2023/06/16 10:02:30;;;;;;;0.00;0.00;;;;;;;;;;7376707;19;20141;-72
2023/06/16 10:05:00;;;;;;;0.00;0.00;;;;;;;;;;7373365;19;20161;-72
2023/06/16 10:07:29;;;;;;;0.00;0.00;;;;;;;;;;7377882;19;20204;-73
2023/06/16 10:09:58;;;;;;;0.00;0.00;;;;;;;;;;7375386;19;20212;-73
2023/06/16 10:12:30;;;;;;;0.00;0.00;;;;;;;;;;7378363;19;20220;-73
2023/06/16 10:15:01;;;;;;;0.00;0.00;;;;;;;;;;7372713;19;20162;-73
2023/06/16 10:17:31;;;;;;;0.00;0.00;;;;;;;;;;7374657;19;20153;-72
2023/06/16 10:20:00;;;;;;;0.00;0.00;;;;;;;;;;7375504;19;20152;-71
2023/06/16 10:22:29;;;;;;;0.00;0.00;;;;;;;;;;7378431;19;20155;-71
2023/06/16 10:25:00;;;;;;;0.00;0.00;;;;;;;;;;7377216;19;20219;-71
2023/06/16 10:27:31;;;;;;;0.00;0.00;;;;;;;;;;7377575;19;20129;-72
2023/06/16 10:30:02;;;;;;;0.00;0.00;;;;;;;;;;7376432;19;20224;-71
2023/06/16 10:32:31;;;;;;;0.00;0.00;;;;;;;;;;7376896;19;20133;-71
2023/06/16 10:35:01;;;;;;;0.00;0.00;;;;;;;;;;7375197;19;20162;-71
2023/06/16 10:37:30;;;;;;;0.00;0.00;;;;;;;;;;7376917;19;20242;-71
2023/06/16 10:39:59;;;;;;;0.00;0.00;;;;;;;;;;7373293;19;20167;-73
2023/06/16 10:42:28;;;;;;;0.00;0.00;;;;;;;;;;7376885;19;20133;-71
2023/06/16 10:45:20;;;;;;;0.00;0.00;;;;;;;;;;7371497;19;20156;-71
2023/06/16 10:47:57;;;;;;;0.00;0.00;;;;;;;;;;7377375;19;20212;-72
2023/06/16 10:50:33;;;;;;;0.00;0.00;;;;;;;;;;7361981;19;20156;-73
2023/06/16 10:53:12;;;;;;;0.00;0.00;;;;;;;;;;7373040;19;20167;-71
2023/06/16 10:55:43;;;;;;;0.00;0.00;;;;;;;;;;7365713;19;20163;-74
2023/06/16 10:58:26;;;;;;;0.00;0.00;;;;;;;;;;7373675;19;20156;-73
2023/06/16 11:01:02;;;;;;;0.00;0.00;;;;;;;;;;7363004;19;20201;-72
2023/06/16 11:03:32;;;;;;;0.00;0.00;;;;;;;;;;7373225;19;20168;-73
2023/06/16 11:06:02;;;;;;;0.00;0.00;;;;;;;;;;7372190;19;20152;-73
2023/06/16 11:08:31;;;;;;;0.00;0.00;;;;;;;;;;7373070;19;20165;-72
2023/06/16 11:11:07;;;;;;;0.00;0.00;;;;;;;;;;7371319;19;20287;-72
2023/06/16 11:13:38;;;;;;;0.03;0.03;;;;;;;;;;7365490;19;20152;-72
2023/06/16 11:16:10;;;;;;;0.00;0.00;;;;;;;;;;7370800;19;20212;-71
2023/06/16 11:18:39;;;;;;;0.00;0.00;;;;;;;;;;7373381;19;20161;-71
2023/06/16 11:21:10;;;;;;;0.00;0.00;;;;;;;;;;7362498;19;20244;-72
2023/06/16 11:23:39;;;;;;;0.07;0.07;;;;;;;;;;7362506;19;20152;-72
2023/06/16 11:26:09;;;;;;;0.00;0.00;;;;;;;;;;7361555;19;20160;-72
2023/06/16 11:28:40;;;;;;;0.10;0.10;;;;;;;;;;7372461;19;20163;-73
2023/06/16 11:31:12;;;;;;;0.00;0.00;;;;;;;;;;7369062;19;20256;-73
2023/06/16 11:33:42;;;;;;;0.00;0.00;;;;;;;;;;7365296;19;20156;-74
2023/06/16 11:36:18;;;;;;;0.00;0.00;;;;;;;;;;7370812;19;20157;-74
2023/06/16 11:38:47;;;;;;;0.00;0.00;;;;;;;;;;7372188;19;20156;-75
2023/06/16 11:41:20;;;;;;;0.00;0.00;;;;;;;;;;7367039;19;20539;-74
2023/06/16 11:43:50;;;;;;;0.03;0.03;;;;;;;;;;7368529;19;20155;-73
2023/06/16 11:46:23;;;;;;;0.00;0.00;;;;;;;;;;7370114;19;20500;-70
2023/06/16 11:48:53;;;;;;;0.00;0.00;;;;;;;;;;7373732;19;20156;-71
2023/06/16 11:51:23;;;;;;;0.00;0.00;;;;;;;;;;7357677;19;20180;-72
2023/06/16 11:53:52;;;;;;;0.00;0.00;;;;;;;;;;7369674;19;20229;-72
2023/06/16 11:56:23;;;;;;;0.00;0.00;;;;;;;;;;7361678;19;20533;-72
2023/06/16 11:58:52;;;;;;;0.00;0.00;;;;;;;;;;7371472;19;20170;-72
2023/06/16 12:01:25;;;;;;;0.00;0.00;;;;;;;;;;7365379;19;20191;-71
2023/06/16 12:03:54;;;;;;;0.00;0.00;;;;;;;;;;7364140;19;20524;-71
2023/06/16 12:06:24;;;;;;;0.00;0.00;;;;;;;;;;7368383;19;20145;-72
2023/06/16 12:08:53;;;;;;;0.00;0.00;;;;;;;;;;7370507;19;20157;-72
2023/06/16 12:11:27;;;;;;;0.00;0.00;;;;;;;;;;7358321;19;20237;-72
2023/06/16 12:13:57;;;;;;;0.00;0.00;;;;;;;;;;7370512;19;20240;-71
2023/06/16 12:16:29;;;;;;;0.00;0.00;;;;;;;;;;7368075;19;20171;-71
2023/06/16 12:18:59;;;;;;;0.00;0.00;;;;;;;;;;7368430;19;20141;-72
2023/06/16 12:21:30;;;;;;;0.00;0.00;;;;;;;;;;7354291;19;20221;-72
2023/06/16 12:24:00;;;;;;;0.00;0.00;;;;;;;;;;7371016;19;20137;-72
2023/06/16 12:26:31;;;;;;;0.00;0.00;;;;;;;;;;7369170;19;20159;-73
2023/06/16 12:29:00;;;;;;;0.00;0.00;;;;;;;;;;7369511;19;20160;-72
2023/06/16 12:31:32;;;;;;;0.00;0.00;;;;;;;;;;7366286;19;20180;-72
2023/06/16 12:34:01;;;;;;;0.00;0.00;;;;;;;;;;7369205;19;20194;-71
2023/06/16 12:36:30;;;;;;;0.00;0.00;;;;;;;;;;7366933;19;20152;-72
2023/06/16 12:38:59;;;;;;;0.00;0.00;;;;;;;;;;7361651;19;20179;-72
2023/06/16 12:41:30;;;;;;;0.00;0.00;;;;;;;;;;7359914;19;20181;-71
2023/06/16 12:43:59;;;;;;;0.00;0.00;;;;;;;;;;7369219;19;20191;-71
2023/06/16 12:46:28;;;;;;;0.00;0.00;;;;;;;;;;7364846;19;20186;-69
2023/06/16 12:49:00;;;;;;;0.00;0.00;;;;;;;;;;7370967;19;20215;-71
2023/06/16 12:51:29;;;;;;;0.00;0.00;;;;;;;;;;7363641;19;20188;-72
2023/06/16 12:53:59;;;;;;;0.00;0.00;;;;;;;;;;7370210;19;20149;-71
2023/06/16 12:56:27;;;;;;;0.00;0.00;;;;;;;;;;7370300;19;20157;-71
2023/06/16 12:58:56;;;;;;;0.00;0.00;;;;;;;;;;7369324;19;20156;-71
2023/06/16 13:01:25;;;;;;;0.00;0.00;;;;;;;;;;7363449;19;20180;-72
2023/06/16 13:03:54;;;;;;;0.00;0.00;;;;;;;;;;7370588;19;20148;-72
2023/06/16 13:06:26;;;;;;;0.00;0.00;;;;;;;;;;7369090;19;20246;-71
2023/06/16 13:08:56;;;;;;;0.00;0.00;;;;;;;;;;7371400;19;20160;-72
2023/06/16 13:11:26;;;;;;;0.00;0.00;;;;;;;;;;7367415;19;20180;-71
2023/06/16 13:13:55;;;;;;;0.00;0.00;;;;;;;;;;7373946;19;20145;-72
2023/06/16 13:16:25;;;;;;;0.00;0.00;;;;;;;;;;7377192;19;20178;-71
2023/06/16 13:18:54;;;;;;;0.00;0.00;;;;;;;;;;7377665;19;20168;-71
2023/06/16 13:21:23;;;;;;;0.00;0.00;;;;;;;;;;7373557;19;20180;-71
2023/06/16 13:23:54;;;;;;;0.00;0.00;;;;;;;;;;7375431;19;20160;-72
2023/06/16 13:26:24;;;;;;;0.00;0.00;;;;;;;;;;7365035;19;20160;-70
2023/06/16 13:28:54;;;;;;;0.00;0.00;;;;;;;;;;7377302;19;20157;-71
2023/06/16 13:31:23;;;;;;;0.00;0.00;;;;;;;;;;7372035;19;20180;-71
2023/06/16 13:33:53;;;;;;;0.00;0.00;;;;;;;;;;7374080;19;20164;-70
2023/06/16 13:36:22;;;;;;;0.00;0.00;;;;;;;;;;7376189;19;20156;-72
2023/06/16 13:38:52;;;;;;;0.00;0.00;;;;;;;;;;7376320;19;20160;-73
2023/06/16 13:41:25;;;;;;;0.00;0.00;;;;;;;;;;7372014;19;20217;-72
2023/06/16 13:43:54;;;;;;;0.00;0.00;;;;;;;;;;7375418;19;20153;-74
2023/06/16 13:46:23;;;;;;;0.00;0.00;;;;;;;;;;7372168;19;20260;-71
2023/06/16 13:48:52;;;;;;;0.00;0.00;;;;;;;;;;7376198;19;20180;-72
2023/06/16 13:51:21;;;;;;;0.00;0.00;;;;;;;;;;7370645;19;20196;-72
2023/06/16 13:53:50;;;;;;;0.00;0.00;;;;;;;;;;7376803;19;20137;-72
2023/06/16 13:56:19;;;;;;;0.00;0.00;;;;;;;;;;7374902;19;20140;-73
2023/06/16 13:58:51;;;;;;;0.00;0.00;;;;;;;;;;7377596;19;20218;-72
2023/06/16 14:01:20;;;;;;;0.00;0.00;;;;;;;;;;7368510;19;20236;-72
2023/06/16 14:03:49;;;;;;;0.00;0.00;;;;;;;;;;7378364;19;20137;-73
2023/06/16 14:06:18;;;;;;;0.00;0.00;;;;;;;;;;7377068;19;20200;-72
2023/06/16 14:08:49;;;;;;;0.00;0.00;;;;;;;;;;7378818;19;20245;-71
2023/06/16 14:11:18;;;;;;;0.00;0.00;;;;;;;;;;7375219;19;20172;-71
2023/06/16 14:13:47;;;;;;;0.00;0.00;;;;;;;;;;7374974;19;20167;-73
2023/06/16 14:16:18;;;;;;;0.00;0.00;;;;;;;;;;7377165;19;20132;-73
2023/06/16 14:18:47;;;;;;;0.00;0.00;;;;;;;;;;7377539;19;20137;-74
2023/06/16 14:21:16;;;;;;;0.00;0.00;;;;;;;;;;7371587;19;20188;-73
2023/06/16 14:23:45;;;;;;;0.00;0.00;;;;;;;;;;7377007;19;20200;-70
2023/06/16 14:26:16;;;;;;;0.00;0.00;;;;;;;;;;7373827;19;20150;-70
2023/06/16 14:28:45;;;;;;;0.00;0.00;;;;;;;;;;7377577;19;20146;-71
2023/06/16 14:31:14;;;;;;;0.00;0.00;;;;;;;;;;7371279;19;20197;-71
2023/06/16 14:33:46;;;;;;;0.00;0.00;;;;;;;;;;7373452;19;20145;-72
2023/06/16 14:36:15;;;;;;;0.00;0.00;;;;;;;;;;7374921;19;20156;-72
2023/06/16 14:38:44;;;;;;;0.00;0.00;;;;;;;;;;7376452;19;20184;-72
2023/06/16 14:41:13;;;;;;;0.00;0.00;;;;;;;;;;7370053;19;20176;-70
2023/06/16 14:43:42;;;;;;;0.00;0.00;;;;;;;;;;7375092;19;20161;-71
2023/06/16 14:46:11;;;;;;;0.00;0.00;;;;;;;;;;7374649;19;20152;-71
2023/06/16 14:48:40;;;;;;;0.00;0.00;;;;;;;;;;7375327;19;20153;-70
2023/06/16 14:51:12;;;;;;;0.00;0.00;;;;;;;;;;7372080;19;20220;-71
2023/06/16 14:53:41;;;;;;;0.00;0.00;;;;;;;;;;7373977;19;20152;-71
2023/06/16 14:56:10;;;;;;;0.00;0.00;;;;;;;;;;7374750;19;20149;-71
2023/06/16 14:58:39;;;;;;;0.00;0.00;;;;;;;;;;7375462;19;20268;-71
2023/06/16 15:01:08;;;;;;;0.00;0.00;;;;;;;;;;7369818;19;20217;-71
2023/06/16 15:03:37;;;;;;;0.00;0.00;;;;;;;;;;7371758;19;20157;-71